createdAt,value
2022-11-18T00:01:20.225Z,97991.25
2022-11-18T00:03:48.260Z,97988.00
2022-11-18T00:06:18.433Z,97986.01
2022-11-18T00:08:46.239Z,97987.98
2022-11-18T00:11:36.640Z,97986.28
2022-11-18T00:14:22.423Z,97979.25
2022-11-18T00:16:54.658Z,97978.51
2022-11-18T00:19:39.444Z,97971.34
2022-11-18T00:22:09.924Z,97974.36
2022-11-18T00:24:37.502Z,97971.42
2022-11-18T00:27:05.132Z,97969.84
2022-11-18T00:29:32.939Z,97967.80
2022-11-18T00:32:00.559Z,97964.71
2022-11-18T00:34:28.115Z,97963.64
2022-11-18T00:36:55.699Z,97961.92
2022-11-18T00:39:23.861Z,97969.96
2022-11-18T00:42:10.314Z,97977.06
2022-11-18T00:44:37.943Z,97980.17
2022-11-18T00:47:05.564Z,97980.23
2022-11-18T00:49:33.156Z,97979.98
2022-11-18T00:52:01.338Z,97975.51
2022-11-18T00:54:29.080Z,97979.40
2022-11-18T00:56:56.667Z,97976.92
2022-11-18T00:59:24.318Z,97976.13
2022-11-18T01:01:52.028Z,97977.07
2022-11-18T01:04:20.038Z,97983.95
2022-11-18T01:06:47.642Z,97986.05
2022-11-18T01:09:15.626Z,97992.20
2022-11-18T01:12:02.379Z,97991.70
2022-11-18T01:14:29.952Z,97990.18
2022-11-18T01:16:58.162Z,97989.48
2022-11-18T01:19:26.438Z,97992.73
2022-11-18T01:21:54.511Z,97992.77
2022-11-18T01:24:22.479Z,97992.27
2022-11-18T01:26:50.058Z,97993.63
2022-11-18T01:29:17.876Z,97989.39
2022-11-18T01:32:09.083Z,97985.53
2022-11-18T01:34:33.291Z,97993.95
2022-11-18T01:37:00.865Z,97994.05
2022-11-18T01:39:28.447Z,97990.74
2022-11-18T01:41:56.027Z,97988.66
2022-11-18T01:44:54.834Z,97987.98
2022-11-18T01:47:22.872Z,97997.92
2022-11-18T01:49:50.634Z,97999.86
2022-11-18T01:52:18.258Z,98002.33
2022-11-18T01:54:48.600Z,97996.53
2022-11-18T01:57:18.916Z,97995.02
2022-11-18T01:59:49.589Z,97997.31
2022-11-18T02:02:17.641Z,98001.70
2022-11-18T02:04:48.011Z,98002.05
2022-11-18T02:07:16.740Z,97996.92
2022-11-18T02:09:44.821Z,97993.77
2022-11-18T02:12:13.151Z,97989.99
2022-11-18T02:14:43.774Z,97987.10
2022-11-18T02:17:36.574Z,97987.11
2022-11-18T02:20:41.290Z,97985.48
2022-11-18T02:23:31.634Z,97978.58
2022-11-18T02:26:30.610Z,97977.77
2022-11-18T02:29:07.635Z,97972.77
2022-11-18T02:31:56.985Z,97974.10
2022-11-18T02:34:41.055Z,97978.37
2022-11-18T02:37:31.415Z,97974.75
2022-11-18T02:40:24.972Z,97978.77
2022-11-18T02:43:00.590Z,97976.82
2022-11-18T02:45:29.819Z,97969.57
2022-11-18T02:48:03.423Z,97963.42
2022-11-18T02:50:32.310Z,97957.27
2022-11-18T02:53:01.922Z,97959.55
2022-11-18T02:55:31.741Z,97955.42
2022-11-18T02:58:00.839Z,97950.63
2022-11-18T03:00:28.610Z,97953.50
2022-11-18T03:02:56.313Z,97957.06
2022-11-18T03:05:35.196Z,97951.98
2022-11-18T03:08:10.361Z,97946.08
2022-11-18T03:10:47.001Z,97945.58
2022-11-18T03:13:14.672Z,97944.54
2022-11-18T03:16:02.600Z,97940.46
2022-11-18T03:18:45.055Z,97936.98
2022-11-18T03:21:19.419Z,97938.00
2022-11-18T03:24:00.189Z,97943.23
2022-11-18T03:26:32.425Z,97941.13
2022-11-18T03:29:30.107Z,97939.64
2022-11-18T03:32:03.905Z,97940.39
2022-11-18T03:34:41.300Z,97940.93
2022-11-18T03:37:12.878Z,97941.92
2022-11-18T03:39:43.935Z,97946.33
2022-11-18T03:42:35.521Z,97940.57
2022-11-18T03:45:27.208Z,97942.59
2022-11-18T03:48:08.078Z,97946.64
2022-11-18T03:50:48.883Z,97947.89
2022-11-18T03:53:18.138Z,97951.89
2022-11-18T03:55:49.593Z,97950.79
2022-11-18T03:58:23.551Z,97948.67
2022-11-18T04:00:56.852Z,97948.79
2022-11-18T04:03:26.170Z,97945.00
2022-11-18T04:06:01.899Z,97938.69
2022-11-18T04:08:35.146Z,97941.45
2022-11-18T04:11:50.007Z,97942.27
2022-11-18T04:14:18.827Z,97931.77
2022-11-18T04:16:51.335Z,97933.10
2022-11-18T04:19:19.984Z,97929.38
2022-11-18T04:21:48.655Z,97929.14
2022-11-18T04:24:16.283Z,97930.80
2022-11-18T04:26:43.875Z,97925.30
2022-11-18T04:29:11.424Z,97925.16
2022-11-18T04:31:38.967Z,97919.20
2022-11-18T04:34:06.514Z,97921.05
2022-11-18T04:36:34.089Z,97916.45
2022-11-18T04:39:01.663Z,97916.84
2022-11-18T04:41:48.327Z,97916.36
2022-11-18T04:44:15.968Z,97913.80
2022-11-18T04:46:45.007Z,97912.17
2022-11-18T04:49:14.629Z,97914.73
2022-11-18T04:51:43.370Z,97916.11
2022-11-18T04:54:11.834Z,97914.83
2022-11-18T04:56:44.134Z,97912.04
2022-11-18T04:59:16.964Z,97913.22
2022-11-18T05:01:44.944Z,97910.05
2022-11-18T05:04:14.617Z,97904.69
2022-11-18T05:06:42.345Z,97901.28
2022-11-18T05:09:10.414Z,97900.41
2022-11-18T05:11:57.189Z,97896.85
2022-11-18T05:14:26.993Z,97891.13
2022-11-18T05:16:55.697Z,97888.78
2022-11-18T05:19:23.561Z,97891.80
2022-11-18T05:21:51.422Z,97890.74
2022-11-18T05:24:19.131Z,97889.25
2022-11-18T05:26:46.871Z,97890.20
2022-11-18T05:29:14.488Z,97899.31
2022-11-18T05:31:42.114Z,97900.13
2022-11-18T05:34:09.743Z,97906.33
2022-11-18T05:36:37.310Z,97902.45
2022-11-18T05:39:05.044Z,97903.75
2022-11-18T05:41:51.398Z,97907.98
2022-11-18T05:44:19.055Z,97907.63
2022-11-18T05:46:46.613Z,97910.05
2022-11-18T05:49:14.209Z,97911.86
2022-11-18T05:51:41.812Z,97916.09
2022-11-18T05:54:10.194Z,97918.93
2022-11-18T05:56:44.733Z,97920.56
2022-11-18T05:59:13.844Z,97920.84
2022-11-18T06:01:45.843Z,97922.50
2022-11-18T06:04:38.398Z,97926.95
2022-11-18T06:07:33.653Z,97926.95
2022-11-18T06:10:05.432Z,97935.52
2022-11-18T06:12:39.044Z,97940.55
2022-11-18T06:15:18.491Z,97942.25
2022-11-18T06:17:51.075Z,97947.71
2022-11-18T06:20:22.007Z,97949.32
2022-11-18T06:22:51.603Z,97953.75
2022-11-18T06:25:19.614Z,97958.20
2022-11-18T06:27:47.976Z,97957.09
2022-11-18T06:30:15.743Z,97960.94
2022-11-18T06:32:43.306Z,97962.75
2022-11-18T06:35:10.917Z,97969.61
2022-11-18T06:37:38.635Z,97974.61
2022-11-18T06:40:07.116Z,97977.95
2022-11-18T06:42:53.222Z,97976.08
2022-11-18T06:45:20.870Z,97981.27
2022-11-18T06:47:48.551Z,97980.91
2022-11-18T06:50:16.661Z,97986.89
2022-11-18T06:52:44.230Z,97987.45
2022-11-18T06:55:11.787Z,97992.85
2022-11-18T06:57:39.408Z,97991.77
2022-11-18T07:00:07.849Z,97990.75
2022-11-18T07:02:38.532Z,97994.67
2022-11-18T07:05:06.475Z,97995.23
2022-11-18T07:07:41.619Z,97999.21
2022-11-18T07:10:10.160Z,97994.58
2022-11-18T07:12:37.746Z,97992.75
2022-11-18T07:15:05.970Z,97991.70
2022-11-18T07:17:33.558Z,97989.54
2022-11-18T07:20:01.110Z,97989.99
2022-11-18T07:22:29.005Z,97993.80
2022-11-18T07:24:56.569Z,97994.11
2022-11-18T07:27:24.246Z,97996.95
2022-11-18T07:29:51.795Z,97997.65
2022-11-18T07:32:19.377Z,98000.56
2022-11-18T07:34:46.926Z,98000.73
2022-11-18T07:37:14.500Z,98000.52
2022-11-18T07:39:42.075Z,98003.86
2022-11-18T07:42:09.963Z,98005.02
2022-11-18T07:44:37.538Z,98009.52
2022-11-18T07:47:05.143Z,98010.42
2022-11-18T07:49:32.695Z,98014.80
2022-11-18T07:52:00.555Z,98014.36
2022-11-18T07:54:28.146Z,98013.17
2022-11-18T07:56:55.731Z,98017.70
2022-11-18T07:59:23.301Z,98018.02
2022-11-18T08:01:50.959Z,98020.61
2022-11-18T08:04:18.687Z,98018.95
2022-11-18T08:06:46.257Z,98018.84
2022-11-18T08:09:13.821Z,98015.17
2022-11-18T08:11:41.390Z,98011.80
2022-11-18T08:14:09.072Z,98010.42
2022-11-18T08:16:36.847Z,98012.61
2022-11-18T08:19:04.462Z,98013.92
2022-11-18T08:21:32.042Z,98017.63
2022-11-18T08:23:59.628Z,98009.09
2022-11-18T08:26:27.704Z,98008.27
2022-11-18T08:28:55.394Z,98004.77
2022-11-18T08:31:25.800Z,98007.56
2022-11-18T08:34:01.220Z,98003.67
2022-11-18T08:36:31.482Z,98005.79
2022-11-18T08:39:00.882Z,98001.83
2022-11-18T08:41:36.410Z,98005.02
2022-11-18T08:44:05.623Z,98003.99
2022-11-18T08:46:33.663Z,98001.51
2022-11-18T08:49:01.296Z,98001.21
2022-11-18T08:51:29.422Z,98002.35
2022-11-18T08:53:57.316Z,98003.53
2022-11-18T08:56:25.696Z,98013.08
2022-11-18T08:58:54.394Z,98012.64
2022-11-18T09:01:22.610Z,98013.07
2022-11-18T09:03:50.429Z,98017.55
2022-11-18T09:06:21.070Z,98017.11
2022-11-18T09:08:48.914Z,98023.52
2022-11-18T09:11:21.500Z,98023.48
2022-11-18T09:14:39.056Z,98016.60
2022-11-18T09:16:40.532Z,98016.38
2022-11-18T09:19:32.103Z,98020.25
2022-11-18T09:21:55.754Z,98016.69
2022-11-18T09:24:23.340Z,98018.67
2022-11-18T09:26:51.286Z,98023.87
2022-11-18T09:29:20.070Z,98024.86
2022-11-18T09:31:47.643Z,98025.73
2022-11-18T09:34:15.469Z,98023.30
2022-11-18T09:36:43.555Z,98022.92
2022-11-18T09:39:11.420Z,98023.39
2022-11-18T09:42:12.407Z,98017.59
2022-11-18T09:44:51.821Z,98014.97
2022-11-18T09:47:27.523Z,98008.57
2022-11-18T09:50:14.895Z,98004.56
2022-11-18T09:55:59.414Z,97999.71
2022-11-18T09:58:34.114Z,98001.29
2022-11-18T10:01:03.038Z,98004.91
2022-11-18T10:03:32.766Z,98005.39
2022-11-18T10:06:10.123Z,98003.98
2022-11-18T10:08:43.074Z,98008.70
2022-11-18T10:11:21.435Z,98009.98
2022-11-18T10:14:07.968Z,98007.42
2022-11-18T10:16:50.905Z,98008.11
2022-11-18T10:19:44.335Z,98005.11
2022-11-18T10:22:34.382Z,98008.80
2022-11-18T10:25:02.032Z,98013.98
2022-11-18T10:27:39.647Z,98014.65
2022-11-18T10:30:16.683Z,98014.14
2022-11-18T10:32:56.531Z,98016.42
2022-11-18T10:35:44.362Z,98014.40
2022-11-18T10:38:14.738Z,98015.62
2022-11-18T10:40:47.098Z,98013.91
2022-11-18T10:43:49.038Z,98015.03
2022-11-18T10:46:27.197Z,98013.42
2022-11-18T10:49:09.912Z,98014.45
2022-11-18T10:51:41.047Z,98019.39
2022-11-18T10:54:18.932Z,98020.03
2022-11-18T10:56:57.841Z,98015.52
2022-11-18T10:59:35.494Z,98016.11
2022-11-18T11:02:32.584Z,98025.67
2022-11-18T11:05:04.464Z,98028.69
2022-11-18T11:07:35.019Z,98028.81
2022-11-18T11:10:05.840Z,98028.74
2022-11-18T11:12:46.902Z,98028.25
2022-11-18T11:15:18.429Z,98028.48
2022-11-18T11:18:11.471Z,98026.69
2022-11-18T11:20:39.272Z,98028.48
2022-11-18T11:23:11.194Z,98034.67
2022-11-18T11:28:54.237Z,98043.73
2022-11-18T11:31:30.278Z,98045.08
2022-11-18T11:34:22.993Z,98042.45
2022-11-18T11:37:04.452Z,98043.05
2022-11-18T11:39:41.435Z,98047.66
2022-11-18T11:42:18.551Z,98047.55
2022-11-18T11:44:58.510Z,98048.81
2022-11-18T11:47:57.050Z,98053.16
2022-11-18T11:55:00.314Z,98051.34
2022-11-18T11:57:44.623Z,98053.86
2022-11-18T12:00:14.541Z,98056.15
2022-11-18T12:02:58.292Z,98060.20
2022-11-18T12:05:39.462Z,98056.73
2022-11-18T12:08:21.580Z,98055.96
2022-11-18T12:11:13.814Z,98051.48
2022-11-18T12:14:05.202Z,98053.05
2022-11-18T12:16:43.319Z,98057.16
2022-11-18T12:19:12.252Z,98062.92
2022-11-18T12:21:45.647Z,98061.38
2022-11-18T12:24:30.812Z,98060.59
2022-11-18T12:27:05.625Z,98057.08
2022-11-18T12:29:40.675Z,98062.77
2022-11-18T12:32:42.242Z,98065.89
2022-11-18T12:35:13.163Z,98070.55
2022-11-18T12:38:00.517Z,98072.84
2022-11-18T12:40:38.378Z,98066.95
2022-11-18T12:43:44.764Z,98067.38
2022-11-18T12:46:42.803Z,98066.71
2022-11-18T12:49:22.540Z,98060.42
2022-11-18T12:51:52.297Z,98054.89
2022-11-18T12:54:27.673Z,98046.27
2022-11-18T12:56:58.645Z,98049.99
2022-11-18T12:59:36.686Z,98050.70
2022-11-18T13:02:10.376Z,98051.90
2022-11-18T13:04:44.362Z,98047.48
2022-11-18T13:07:39.276Z,98043.49
2022-11-18T13:10:21.249Z,98047.38
2022-11-18T13:12:49.226Z,98046.77
2022-11-18T13:15:35.457Z,98042.73
2022-11-18T13:18:21.469Z,98039.08
2022-11-18T13:21:20.358Z,98043.27
2022-11-18T13:24:00.406Z,98049.12
2022-11-18T13:26:32.720Z,98054.90
2022-11-18T13:29:09.426Z,98058.41
2022-11-18T13:31:53.405Z,98056.29
2022-11-18T13:34:26.767Z,98063.74
2022-11-18T13:36:56.709Z,98068.52
2022-11-18T13:39:27.071Z,98068.94
2022-11-18T13:42:22.314Z,98074.75
2022-11-18T13:44:55.441Z,98072.09
2022-11-18T13:47:51.616Z,98072.83
2022-11-18T13:50:31.455Z,98077.10
2022-11-18T13:53:23.366Z,98077.77
2022-11-18T13:55:58.926Z,98081.20
2022-11-18T13:58:40.126Z,98081.91
2022-11-18T14:01:19.267Z,98081.85
2022-11-18T14:03:52.404Z,98084.42
2022-11-18T14:06:39.387Z,98090.59
2022-11-18T14:09:30.956Z,98092.42
2022-11-18T14:12:03.214Z,98097.56
2022-11-18T14:14:33.939Z,98095.29
2022-11-18T14:17:18.623Z,98099.71
2022-11-18T14:19:48.392Z,98101.72
2022-11-18T14:22:22.200Z,98096.95
2022-11-18T14:25:01.201Z,98102.47
2022-11-18T14:27:51.515Z,98102.05
2022-11-18T14:30:39.854Z,98102.16
2022-11-18T14:33:20.748Z,98103.83
2022-11-18T14:36:15.416Z,98107.43
2022-11-18T14:39:25.528Z,98109.17
2022-11-18T14:41:49.493Z,98116.39
2022-11-18T14:44:18.650Z,98116.73
2022-11-18T14:46:49.638Z,98117.84
2022-11-18T14:49:19.936Z,98118.20
2022-11-18T14:51:48.217Z,98119.06
2022-11-18T14:54:23.791Z,98123.86
2022-11-18T14:56:55.675Z,98125.79
2022-11-18T14:59:23.285Z,98129.19
2022-11-18T15:01:51.306Z,98130.00
2022-11-18T15:04:21.009Z,98133.30
2022-11-18T15:06:49.016Z,98137.23
2022-11-18T15:09:16.657Z,98138.73
2022-11-18T15:11:44.698Z,98142.16
2022-11-18T15:14:12.355Z,98139.09
2022-11-18T15:16:39.978Z,98142.61
2022-11-18T15:19:13.458Z,98147.09
2022-11-18T15:21:41.041Z,98152.95
2022-11-18T15:24:08.660Z,98153.22
2022-11-18T15:26:39.500Z,98155.71
2022-11-18T15:29:18.684Z,98156.10
2022-11-18T15:31:47.190Z,98154.44
2022-11-18T15:34:15.859Z,98152.13
2022-11-18T15:36:43.786Z,98153.60
2022-11-18T15:39:12.205Z,98162.34
2022-11-18T15:41:41.333Z,98162.78
2022-11-18T15:44:10.139Z,98166.86
2022-11-18T15:46:37.772Z,98172.13
2022-11-18T15:49:08.161Z,98174.72
2022-11-18T15:51:37.115Z,98176.98
2022-11-18T15:54:04.723Z,98182.20
2022-11-18T15:56:33.053Z,98186.08
2022-11-18T15:59:10.014Z,98188.05
2022-11-18T16:01:41.927Z,98194.56
2022-11-18T16:04:11.644Z,98198.70
2022-11-18T16:06:39.375Z,98191.63
2022-11-18T16:09:07.212Z,98197.44
2022-11-18T16:11:53.770Z,98197.59
2022-11-18T16:14:23.169Z,98200.42
2022-11-18T16:16:53.973Z,98203.50
2022-11-18T16:19:24.604Z,98205.57
2022-11-18T16:21:55.839Z,98203.04
2022-11-18T16:24:26.059Z,98207.55
2022-11-18T16:26:53.904Z,98211.58
2022-11-18T16:29:23.539Z,98209.38
2022-11-18T16:31:52.889Z,98207.55
2022-11-18T16:34:26.179Z,98208.27
2022-11-18T16:36:55.942Z,98214.20
2022-11-18T16:39:26.204Z,98212.67
2022-11-18T16:41:59.412Z,98213.83
2022-11-18T16:44:30.136Z,98212.03
2022-11-18T16:46:58.019Z,98213.49
2022-11-18T16:49:26.980Z,98213.56
2022-11-18T16:51:56.179Z,98218.39
2022-11-18T16:54:29.167Z,98217.66
2022-11-18T16:56:58.151Z,98218.02
2022-11-18T16:59:27.622Z,98220.16
2022-11-18T17:01:56.879Z,98220.88
2022-11-18T17:04:26.226Z,98219.26
2022-11-18T17:06:54.256Z,98217.44
2022-11-18T17:09:23.650Z,98218.67
2022-11-18T17:11:52.746Z,98222.92
2022-11-18T17:14:21.875Z,98220.02
2022-11-18T17:16:50.606Z,98222.56
2022-11-18T17:19:23.168Z,98226.94
2022-11-18T17:21:51.982Z,98228.45
2022-11-18T17:24:22.255Z,98228.61
2022-11-18T17:26:52.012Z,98227.80
2022-11-18T17:29:20.646Z,98231.14
2022-11-18T17:31:49.000Z,98233.59
2022-11-18T17:34:17.106Z,98229.61
2022-11-18T17:36:45.145Z,98232.29
2022-11-18T17:39:13.473Z,98230.73
2022-11-18T17:42:00.172Z,98229.70
2022-11-18T17:44:29.168Z,98230.48
2022-11-18T17:46:56.810Z,98234.94
2022-11-18T17:49:24.455Z,98231.81
2022-11-18T17:51:52.209Z,98232.15
2022-11-18T17:54:20.634Z,98230.26
2022-11-18T17:56:49.980Z,98231.63
2022-11-18T17:59:18.203Z,98232.39
2022-11-18T18:01:46.650Z,98235.76
2022-11-18T18:04:20.023Z,98237.79
2022-11-18T18:06:51.009Z,98238.64
2022-11-18T18:09:28.480Z,98241.88
2022-11-18T18:11:59.902Z,98242.23
2022-11-18T18:14:27.491Z,98243.45
2022-11-18T18:16:55.067Z,98240.02
2022-11-18T18:19:23.206Z,98243.23
2022-11-18T18:21:51.060Z,98244.08
2022-11-18T18:24:20.805Z,98252.18
2022-11-18T18:26:49.187Z,98259.39
2022-11-18T18:29:16.858Z,98264.43
2022-11-18T18:31:44.423Z,98266.40
2022-11-18T18:34:12.064Z,98268.19
2022-11-18T18:36:39.662Z,98264.38
2022-11-18T18:39:07.274Z,98263.70
2022-11-18T18:41:35.193Z,98263.70
2022-11-18T18:44:02.802Z,98266.31
2022-11-18T18:46:32.261Z,98264.89
2022-11-18T18:49:08.774Z,98272.73
2022-11-18T18:51:41.147Z,98274.38
2022-11-18T18:54:14.670Z,98276.70
2022-11-18T18:56:42.788Z,98280.33
2022-11-18T18:59:10.755Z,98278.54
2022-11-18T19:01:39.064Z,98279.48
2022-11-18T19:04:07.644Z,98284.27
2022-11-18T19:06:58.800Z,98281.83
2022-11-18T19:09:25.117Z,98284.52
2022-11-18T19:12:12.578Z,98286.54
2022-11-18T19:14:40.360Z,98290.38
2022-11-18T19:17:12.642Z,98291.41
2022-11-18T19:20:20.692Z,98297.40
2022-11-18T19:22:48.238Z,98297.95
2022-11-18T19:25:15.886Z,98299.38
2022-11-18T19:27:43.527Z,98299.88
2022-11-18T19:30:11.820Z,98302.40
2022-11-18T19:32:40.617Z,98301.13
2022-11-18T19:35:09.041Z,98300.80
2022-11-18T19:37:37.381Z,98301.27
2022-11-18T19:40:09.079Z,98302.64
2022-11-18T19:42:39.414Z,98306.02
2022-11-18T19:45:08.748Z,98311.29
2022-11-18T19:47:36.683Z,98312.23
2022-11-18T19:50:05.965Z,98314.17
2022-11-18T19:52:33.630Z,98319.84
2022-11-18T19:55:01.239Z,98324.50
2022-11-18T19:57:29.003Z,98328.87
2022-11-18T19:59:56.601Z,98327.20
2022-11-18T20:02:24.623Z,98327.61
2022-11-18T20:05:10.954Z,98325.77
2022-11-18T20:07:38.612Z,98330.40
2022-11-18T20:10:06.741Z,98329.60
2022-11-18T20:12:34.323Z,98331.98
2022-11-18T20:15:02.207Z,98335.70
2022-11-18T20:17:29.784Z,98338.27
2022-11-18T20:19:57.371Z,98346.63
2022-11-18T20:22:25.041Z,98340.98
2022-11-18T20:24:52.651Z,98345.02
2022-11-18T20:27:21.131Z,98347.39
2022-11-18T20:29:48.703Z,98346.10
2022-11-18T20:32:16.326Z,98347.02
2022-11-18T20:34:44.128Z,98353.22
2022-11-18T20:37:12.928Z,98349.94
2022-11-18T20:39:40.543Z,98345.16
2022-11-18T20:42:26.975Z,98349.54
2022-11-18T20:44:54.563Z,98353.05
2022-11-18T20:47:22.171Z,98356.15
2022-11-18T20:49:49.796Z,98357.42
2022-11-18T20:52:17.368Z,98360.98
2022-11-18T20:54:45.726Z,98360.69
2022-11-18T20:57:13.282Z,98360.52
2022-11-18T20:59:40.928Z,98361.42
2022-11-18T21:02:08.627Z,98362.13
2022-11-18T21:04:36.295Z,98365.89
2022-11-18T21:07:04.304Z,98368.61
2022-11-18T21:09:32.961Z,98372.59
2022-11-18T21:12:01.047Z,98375.61
2022-11-18T21:14:28.719Z,98373.35
2022-11-18T21:17:00.811Z,98372.40
2022-11-18T21:19:29.101Z,98373.75
2022-11-18T21:21:57.016Z,98379.19
2022-11-18T21:24:29.487Z,98380.73
2022-11-18T21:26:57.937Z,98380.36
2022-11-18T21:29:27.715Z,98381.64
2022-11-18T21:31:55.990Z,98378.55
2022-11-18T21:34:24.446Z,98383.73
2022-11-18T21:36:55.001Z,98386.09
2022-11-18T21:39:24.577Z,98381.36
2022-11-18T21:41:56.182Z,98377.93
2022-11-18T21:44:26.116Z,98383.79
2022-11-18T21:46:53.866Z,98383.50
2022-11-18T21:49:22.026Z,98384.08
2022-11-18T21:51:50.049Z,98385.92
2022-11-18T21:54:18.495Z,98394.13
2022-11-18T21:56:46.196Z,98398.23
2022-11-18T21:59:14.001Z,98396.56
2022-11-18T22:01:41.637Z,98400.84
2022-11-18T22:04:29.189Z,98398.29
2022-11-18T22:06:56.833Z,98399.45
2022-11-18T22:09:24.571Z,98401.46
2022-11-18T22:11:52.199Z,98401.98
2022-11-18T22:14:19.745Z,98401.18
2022-11-18T22:16:47.394Z,98404.89
2022-11-18T22:19:14.974Z,98409.00
2022-11-18T22:21:42.568Z,98409.13
2022-11-18T22:24:10.776Z,98407.64
2022-11-18T22:26:38.352Z,98412.23
2022-11-18T22:29:06.112Z,98414.46
2022-11-18T22:31:33.670Z,98416.91
2022-11-18T22:34:01.263Z,98420.29
2022-11-18T22:36:28.897Z,98416.23
2022-11-18T22:38:56.475Z,98416.37
2022-11-18T22:41:46.639Z,98418.54
2022-11-18T22:44:16.148Z,98416.52
2022-11-18T22:46:45.155Z,98413.13
2022-11-18T22:49:13.687Z,98412.02
2022-11-18T22:51:41.623Z,98413.13
2022-11-18T22:54:37.061Z,98414.84
2022-11-18T22:56:57.433Z,98419.42
2022-11-18T22:59:25.101Z,98418.10
2022-11-18T23:01:52.962Z,98420.86
2022-11-18T23:04:20.802Z,98427.06
2022-11-18T23:06:49.251Z,98423.73
2022-11-18T23:09:17.739Z,98420.41
2022-11-18T23:12:04.497Z,98416.54
2022-11-18T23:14:32.103Z,98416.89
2022-11-18T23:16:59.728Z,98417.30
2022-11-18T23:19:27.318Z,98413.49
2022-11-18T23:21:54.906Z,98409.06
2022-11-18T23:24:22.680Z,98416.17
2022-11-18T23:26:50.296Z,98415.57
2022-11-18T23:29:18.290Z,98416.76
2022-11-18T23:31:46.121Z,98412.96
2022-11-18T23:34:15.166Z,98416.90
2022-11-18T23:36:43.111Z,98414.31
2022-11-18T23:39:11.053Z,98414.48
2022-11-18T23:41:38.988Z,98414.52
2022-11-18T23:44:06.969Z,98415.82
2022-11-18T23:46:35.007Z,98415.66
2022-11-18T23:49:02.635Z,98412.86
2022-11-18T23:51:30.236Z,98417.06
2022-11-18T23:53:57.910Z,98423.08
2022-11-18T23:56:26.698Z,98421.27
2022-11-18T23:58:56.198Z,98420.08
